Meulebeke, Belgium
Current Conditions -  °F | °C
As of 4:50 AM on Friday 28 Nov 2014 (Local Time) from EBOS Reporting Station
Broken Clouds Broken Clouds  
Wind Chill: 45°   Ceiling: 1500
Heat Index: 48°   Visibility: 4mi
Dew Point: 48°   Wind: 8mph
Humidity: 100%   Direction: 100°E
Pressure: 29.62"   Gusts: NA
Location:  50.95°N, 3.29°E
Report Text: EBOS 280350Z 10007KT 7000 FEW005 SCT006 BKN015 09/09 Q1003 TEMPO BKN006
Loading
Personal Weather Stations






























Interactive Weather Map New forecast layout! Learn more

10-Day Weather Forecast

Advertisements
Track Severe Weather on mobile